Time;durP1;ratioP1;P1;durP2;ratioP2;P2;SDS_P1;SDS_P2;PMS_P1;PMS_P2;Temp;Humidity;BMP_temperature;BMP_pressure;BME280_temperature;BME280_humidity;BME280_pressure;Samples;Min_cycle;Max_cycle;Signal;HPM_P1;HPM_P2
2022/05/25 00:01:04;;;;;;;5.28;4.75;;;;;;;18.74;49.86;101215.78;4985150;28;20490;-72
2022/05/25 00:03:32;;;;;;;5.00;4.43;;;;;;;18.63;49.72;101218.78;4993580;28;20410;-72
2022/05/25 00:05:59;;;;;;;6.72;5.15;;;;;;;18.55;50.60;101216.56;4984107;28;20122;-72
2022/05/25 00:08:25;;;;;;;6.63;4.82;;;;;;;18.77;50.52;101228.84;4975826;28;20122;-72
2022/05/25 00:10:50;;;;;;;5.43;4.82;;;;;;;18.72;50.19;101225.31;4976140;28;20042;-73
2022/05/25 00:13:16;;;;;;;8.63;5.25;;;;;;;18.46;51.03;101218.16;4975678;28;20034;-72
2022/05/25 00:15:41;;;;;;;6.90;5.70;;;;;;;18.59;50.00;101225.84;4975334;28;20121;-72
2022/05/25 00:18:07;;;;;;;6.68;5.43;;;;;;;18.32;51.30;101224.09;4975500;28;20039;-71
2022/05/25 00:20:33;;;;;;;6.35;5.75;;;;;;;18.51;50.52;101237.25;4975878;28;20047;-71
2022/05/25 00:22:59;;;;;;;9.75;6.00;;;;;;;18.43;50.05;101233.13;4981968;28;20125;-71
2022/05/25 00:25:33;;;;;;;8.20;5.65;;;;;;;18.34;51.39;101240.13;4994217;28;20085;-72
2022/05/25 00:27:59;;;;;;;6.80;5.70;;;;;;;18.47;51.20;101238.88;4994856;28;20034;-72
2022/05/25 00:30:25;;;;;;;6.95;6.25;;;;;;;18.47;50.31;101242.41;4994527;28;20062;-72
2022/05/25 00:32:51;;;;;;;8.80;5.85;;;;;;;18.63;50.53;101235.09;4994894;28;20035;-71
2022/05/25 00:35:19;;;;;;;9.27;6.53;;;;;;;18.55;51.11;101243.78;4994565;28;20113;-71
2022/05/25 00:37:45;;;;;;;10.43;7.55;;;;;;;18.47;50.67;101247.84;4994864;28;20049;-72
2022/05/25 00:40:14;;;;;;;8.70;7.03;;;;;;;18.60;50.14;101251.94;4994244;28;20042;-72
2022/05/25 00:42:40;;;;;;;9.95;6.47;;;;;;;18.37;50.82;101247.78;4993652;28;20481;-71
2022/05/25 00:45:07;;;;;;;7.03;6.38;;;;;;;18.42;50.76;101245.91;4994174;28;20042;-71
2022/05/25 00:47:33;;;;;;;9.70;6.68;;;;;;;17.99;52.77;101246.25;4994513;28;20038;-71
2022/05/25 00:49:58;;;;;;;10.60;7.03;;;;;;;18.14;52.03;101243.59;4994346;28;20026;-72
2022/05/25 00:52:26;;;;;;;7.05;6.05;;;;;;;18.19;51.25;101246.34;4994564;28;20045;-70
2022/05/25 00:54:56;;;;;;;9.27;6.65;;;;;;;18.30;51.38;101248.00;4994139;28;20038;-72
2022/05/25 00:57:25;;;;;;;10.30;6.90;;;;;;;18.00;52.07;101253.34;4994143;28;20506;-72
2022/05/25 01:00:10;;;;;;;7.65;6.93;;;;;;;17.50;54.17;101258.44;4994031;28;20057;-71
2022/05/25 01:02:38;;;;;;;8.18;7.35;;;;;;;17.63;53.76;101254.47;4994152;28;20517;-71
2022/05/25 01:05:05;;;;;;;8.07;7.22;;;;;;;18.19;51.69;101267.28;4993865;28;20046;-72
2022/05/25 01:07:58;;;;;;;8.70;7.60;;;;;;;17.84;52.04;101259.75;4994542;28;20394;-71
2022/05/25 01:10:48;;;;;;;13.18;8.02;;;;;;;18.14;51.66;101253.66;4994416;28;20039;-71
2022/05/25 01:13:53;;;;;;;10.48;7.70;;;;;;;18.09;51.76;101250.91;4993818;28;20038;-70
2022/05/25 01:16:43;;;;;;;12.73;8.27;;;;;;;17.96;52.06;101254.13;4993655;28;20042;-71
2022/05/25 01:19:21;;;;;;;12.82;8.95;;;;;;;18.06;51.93;101252.25;4993702;28;20380;-72
2022/05/25 01:22:10;;;;;;;10.23;8.57;;;;;;;18.04;51.13;101257.13;4993866;28;20050;-72
2022/05/25 01:24:53;;;;;;;13.48;8.30;;;;;;;17.90;51.84;101256.00;4974661;28;20042;-71
2022/05/25 01:27:41;;;;;;;11.50;8.90;;;;;;;18.12;50.87;101259.34;4979832;28;20031;-72
2022/05/25 01:30:20;;;;;;;10.77;8.68;;;;;;;18.06;51.17;101265.84;4993292;28;20030;-71
2022/05/25 01:32:59;;;;;;;10.88;7.65;;;;;;;18.06;50.61;101267.78;4992238;28;20137;-72
2022/05/25 01:35:47;;;;;;;10.68;9.15;;;;;;;18.13;51.01;101269.16;4993609;28;20034;-72
2022/05/25 01:38:28;;;;;;;12.43;8.75;;;;;;;18.04;50.17;101262.56;4992977;28;20031;-72
2022/05/25 01:41:12;;;;;;;14.20;9.57;;;;;;;17.99;51.73;101264.44;4993898;28;20165;-71
2022/05/25 01:43:54;;;;;;;10.13;8.77;;;;;;;18.00;50.56;101272.38;4993310;28;20047;-71
2022/05/25 01:46:42;;;;;;;11.38;8.73;;;;;;;17.82;51.81;101271.97;4993450;28;20062;-72
2022/05/25 01:49:12;;;;;;;12.57;9.15;;;;;;;17.81;51.76;101271.16;4993009;28;20074;-72
2022/05/25 01:51:48;;;;;;;15.82;9.95;;;;;;;17.98;51.48;101271.81;4993267;28;20066;-71
2022/05/25 01:54:19;;;;;;;13.07;8.45;;;;;;;17.99;51.16;101269.88;4992542;28;20041;-70
2022/05/25 01:56:49;;;;;;;11.88;8.77;;;;;;;18.02;50.51;101267.50;4993339;28;20614;-71
2022/05/25 01:59:16;;;;;;;11.32;9.32;;;;;;;18.09;50.74;101272.66;4993037;28;20186;-72
2022/05/25 02:04:47;;;;;;;12.85;9.50;;;;;;;18.00;50.90;101272.38;4993128;28;20528;-72
2022/05/25 02:07:35;;;;;;;10.80;9.30;;;;;;;17.63;52.34;101273.47;4992893;28;20564;-72
2022/05/25 02:10:06;;;;;;;14.02;9.40;;;;;;;17.85;50.95;101272.25;4992304;28;20045;-70
2022/05/25 02:12:50;;;;;;;11.88;10.02;;;;;;;17.96;50.75;101278.59;4991763;28;20125;-71
2022/05/25 02:15:22;;;;;;;12.20;9.73;;;;;;;17.82;51.31;101275.53;4990388;28;20058;-71
2022/05/25 02:17:56;;;;;;;11.95;9.60;;;;;;;17.91;50.95;101278.53;4991730;28;20038;-71
2022/05/25 02:20:40;;;;;;;12.40;9.57;;;;;;;17.99;51.05;101275.34;4991731;28;20514;-71
2022/05/25 02:23:20;;;;;;;12.75;9.15;;;;;;;17.92;50.99;101272.88;4991362;28;20034;-69
2022/05/25 02:25:52;;;;;;;11.65;9.25;;;;;;;17.45;52.42;101282.81;4992654;28;20092;-72
2022/05/25 02:28:46;;;;;;;14.88;10.18;;;;;;;17.79;51.52;101280.66;4991848;28;20038;-72
2022/05/25 02:31:18;;;;;;;10.73;9.20;;;;;;;17.72;51.39;101286.31;4990173;28;20071;-70
2022/05/25 02:33:49;;;;;;;12.63;10.43;;;;;;;17.78;51.04;101287.16;4991319;28;20039;-71
2022/05/25 02:36:17;;;;;;;14.27;10.25;;;;;;;17.51;51.96;101296.22;4990156;28;20042;-71
2022/05/25 02:38:43;;;;;;;12.70;9.50;;;;;;;17.73;51.46;101290.66;4991704;28;20398;-72
2022/05/25 02:41:15;;;;;;;12.02;10.32;;;;;;;17.47;52.03;101289.63;4992041;28;20485;-73
2022/05/25 02:43:40;;;;;;;12.38;10.05;;;;;;;17.52;51.92;101288.88;4992665;28;20416;-71
2022/05/25 02:46:08;;;;;;;13.90;10.23;;;;;;;17.69;51.80;101288.75;4992167;28;20050;-72
2022/05/25 02:48:35;;;;;;;13.55;10.13;;;;;;;17.44;52.03;101282.00;4992232;28;20039;-72
2022/05/25 02:51:01;;;;;;;11.20;10.07;;;;;;;17.48;52.05;101287.72;4992600;28;20383;-71
2022/05/25 02:53:27;;;;;;;15.30;11.45;;;;;;;17.54;51.67;101284.84;4992307;28;20081;-71
2022/05/25 02:55:52;;;;;;;16.13;10.68;;;;;;;17.70;51.19;101290.38;4992884;28;20597;-72
2022/05/25 02:58:17;;;;;;;13.07;10.55;;;;;;;17.34;52.46;101290.06;4992155;28;20050;-70
2022/05/25 03:00:43;;;;;;;16.73;11.77;;;;;;;16.41;54.91;101297.75;4992291;28;20081;-71
2022/05/25 03:03:11;;;;;;;19.65;11.82;;;;;;;17.34;52.47;101302.81;4992252;28;20621;-71
2022/05/25 03:05:37;;;;;;;18.75;13.00;;;;;;;17.34;52.68;101300.94;4993944;28;20038;-72
2022/05/25 03:08:04;;;;;;;12.52;11.00;;;;;;;17.63;51.48;101308.81;5011453;28;20038;-71
2022/05/25 03:10:30;;;;;;;14.80;11.75;;;;;;;17.52;52.10;101303.28;4995570;28;20070;-71
2022/05/25 03:12:55;;;;;;;17.20;11.82;;;;;;;17.34;52.46;101303.66;4996102;28;20134;-70
2022/05/25 03:15:21;;;;;;;17.40;11.85;;;;;;;17.50;51.69;101304.63;4996035;28;20042;-71
2022/05/25 03:17:47;;;;;;;15.18;11.90;;;;;;;17.47;52.01;101302.41;4995985;28;20030;-73
2022/05/25 03:20:13;;;;;;;18.48;12.27;;;;;;;17.38;52.03;101312.94;4995941;28;20057;-73
2022/05/25 03:22:44;;;;;;;17.83;11.52;;;;;;;17.23;52.60;101310.06;4996264;28;20034;-71
2022/05/25 03:25:10;;;;;;;18.67;12.13;;;;;;;17.40;52.09;101315.38;4995750;28;20383;-70
2022/05/25 03:27:35;;;;;;;16.50;12.00;;;;;;;17.10;52.99;101320.53;4995649;28;20066;-71
2022/05/25 03:30:02;;;;;;;18.25;11.93;;;;;;;17.32;52.13;101318.56;4995626;28;20632;-72
2022/05/25 03:32:27;;;;;;;17.63;12.60;;;;;;;17.50;51.25;101321.75;4995769;28;20451;-71
2022/05/25 03:34:52;;;;;;;18.00;13.27;;;;;;;17.53;51.99;101328.59;4995928;28;20062;-71
2022/05/25 03:37:18;;;;;;;16.73;12.05;;;;;;;17.61;51.58;101330.00;4995669;28;20109;-72
2022/05/25 03:39:43;;;;;;;17.98;13.13;;;;;;;17.42;51.79;101324.09;4995955;28;20062;-71
2022/05/25 03:42:13;;;;;;;15.45;12.63;;;;;;;17.49;51.86;101330.19;4995495;28;20220;-71
2022/05/25 03:44:38;;;;;;;16.60;12.07;;;;;;;17.49;51.85;101335.63;4995665;28;20377;-70
2022/05/25 03:47:04;;;;;;;14.50;12.25;;;;;;;17.15;52.42;101339.59;4995410;28;20034;-70
2022/05/25 03:49:29;;;;;;;18.75;12.85;;;;;;;17.50;51.59;101335.34;4995832;28;20040;-71
2022/05/25 03:51:54;;;;;;;16.67;13.60;;;;;;;17.49;52.02;101335.63;4995486;28;20038;-71
2022/05/25 03:54:20;;;;;;;18.00;13.23;;;;;;;17.33;52.11;101342.78;4995370;28;20138;-71
2022/05/25 03:56:45;;;;;;;16.15;12.98;;;;;;;17.40;51.94;101334.41;4995419;28;20037;-71
2022/05/25 03:59:11;;;;;;;16.30;12.70;;;;;;;17.64;51.65;101340.34;4995148;28;20064;-71
2022/05/25 04:01:36;;;;;;;19.65;13.52;;;;;;;17.50;51.51;101338.06;4989756;28;20053;-72
2022/05/25 04:04:03;;;;;;;16.05;13.52;;;;;;;17.50;51.53;101337.25;4975335;28;20062;-71
2022/05/25 04:06:28;;;;;;;17.67;13.23;;;;;;;17.38;52.15;101339.25;5005431;28;20038;-72
2022/05/25 04:08:54;;;;;;;19.92;14.52;;;;;;;17.69;50.80;101341.19;4994879;28;20035;-71
2022/05/25 04:11:19;;;;;;;17.80;13.30;;;;;;;17.66;51.37;101338.19;4993941;28;20521;-70
2022/05/25 04:13:45;;;;;;;20.40;14.32;;;;;;;17.53;52.25;101331.31;4995419;28;20045;-70
2022/05/25 04:16:10;;;;;;;20.30;14.45;;;;;;;17.24;52.98;101333.44;4994919;28;20125;-70
2022/05/25 04:18:36;;;;;;;21.30;14.68;;;;;;;17.80;51.42;101337.50;4994027;28;20093;-72
2022/05/25 04:21:01;;;;;;;23.63;14.55;;;;;;;17.75;51.52;101337.44;4994188;28;20042;-71
2022/05/25 04:23:28;;;;;;;23.45;14.68;;;;;;;17.74;51.62;101335.81;4994532;28;20038;-70
2022/05/25 04:25:54;;;;;;;18.80;14.85;;;;;;;17.62;51.76;101331.63;4994966;28;20108;-71
2022/05/25 04:28:20;;;;;;;19.20;15.00;;;;;;;17.75;51.59;101344.78;4994650;28;20228;-71
2022/05/25 04:30:46;;;;;;;18.38;14.10;;;;;;;17.74;51.33;101338.53;4994736;28;20038;-71
2022/05/25 04:33:12;;;;;;;23.55;15.95;;;;;;;17.72;52.27;101334.44;4994265;28;20180;-71
2022/05/25 04:35:37;;;;;;;17.83;15.30;;;;;;;17.78;52.00;101338.81;4994306;28;20445;-71
2022/05/25 04:38:03;;;;;;;21.30;15.68;;;;;;;17.09;53.83;101349.59;4993698;28;20066;-72
2022/05/25 04:40:32;;;;;;;20.42;16.77;;;;;;;17.36;53.62;101349.56;4994220;28;20088;-72
2022/05/25 04:42:59;;;;;;;23.10;16.40;;;;;;;16.77;55.24;101351.38;4993743;28;20066;-71
2022/05/25 04:45:26;;;;;;;21.15;16.23;;;;;;;16.45;56.50;101347.72;4993548;28;20034;-71
2022/05/25 04:47:52;;;;;;;20.77;16.65;;;;;;;16.04;58.32;101343.59;4993363;28;20503;-71
2022/05/25 04:50:19;;;;;;;22.38;16.98;;;;;;;15.92;58.65;101361.03;4993905;28;20035;-71
2022/05/25 04:52:46;;;;;;;22.23;16.40;;;;;;;16.49;56.73;101357.00;4994025;28;20113;-72
2022/05/25 04:57:19;;;;;;;23.48;16.85;;;;;;;16.31;57.55;101358.06;4993562;28;20542;-72
2022/05/25 04:57:58;;;;;;;22.10;17.48;;;;;;;16.62;56.83;101356.63;4993655;28;20096;-74
2022/05/25 05:00:24;;;;;;;23.48;16.98;;;;;;;16.00;59.41;101361.41;4994626;28;20050;-71
2022/05/25 05:02:49;;;;;;;23.30;17.75;;;;;;;16.61;57.50;101366.66;4990815;28;20672;-71
2022/05/25 05:05:16;;;;;;;22.55;18.48;;;;;;;16.41;58.05;101363.63;4993818;28;20034;-71
2022/05/25 05:07:41;;;;;;;24.98;17.73;;;;;;;16.57;58.09;101359.25;4994434;28;20481;-71
2022/05/25 05:10:07;;;;;;;25.95;17.55;;;;;;;16.91;57.25;101362.66;4983730;28;20034;-70
2022/05/25 05:12:33;;;;;;;26.02;17.40;;;;;;;16.66;57.96;101360.47;4984665;28;20034;-72
2022/05/25 05:14:58;;;;;;;25.42;17.00;;;;;;;17.03;57.67;101358.75;4983420;28;20035;-71
2022/05/25 05:17:24;;;;;;;24.80;17.20;;;;;;;17.08;57.23;101358.78;4993806;28;20371;-71
2022/05/25 05:19:50;;;;;;;23.50;17.42;;;;;;;17.18;56.98;101356.19;4994245;28;20111;-71
2022/05/25 05:22:16;;;;;;;25.27;18.10;;;;;;;17.34;56.62;101357.97;4992127;28;20046;-71
2022/05/25 05:24:43;;;;;;;29.20;17.25;;;;;;;16.69;58.91;101357.25;4991077;28;20034;-70
2022/05/25 05:27:08;;;;;;;25.00;17.23;;;;;;;17.17;58.36;101353.72;4993479;28;20034;-70
2022/05/25 05:29:34;;;;;;;27.83;18.05;;;;;;;17.15;58.22;101353.16;4982207;28;20121;-70
2022/05/25 05:31:59;;;;;;;25.77;18.50;;;;;;;17.26;57.69;101346.75;4984012;28;20035;-70
2022/05/25 05:34:28;;;;;;;24.88;17.50;;;;;;;17.31;57.95;101354.97;4990969;28;20029;-71
2022/05/25 05:37:08;;;;;;;22.63;17.10;;;;;;;17.57;57.29;101354.16;4992947;28;20058;-70
2022/05/25 05:39:40;;;;;;;25.05;16.85;;;;;;;17.65;57.33;101350.94;4990140;28;20490;-71
2022/05/25 05:42:10;;;;;;;24.77;16.85;;;;;;;17.45;57.97;101354.28;4992801;28;20113;-69
2022/05/25 05:44:44;;;;;;;24.92;16.95;;;;;;;17.61;57.73;101357.97;4993233;28;20092;-71
2022/05/25 05:47:14;;;;;;;27.05;15.68;;;;;;;17.92;57.12;101356.34;4993160;28;20034;-72
2022/05/25 05:49:40;;;;;;;23.58;16.80;;;;;;;17.65;58.09;101355.59;4993824;28;20483;-71
2022/05/25 05:52:06;;;;;;;31.63;17.10;;;;;;;17.58;58.56;101352.25;4993272;28;20121;-75
2022/05/25 05:54:32;;;;;;;26.05;16.30;;;;;;;17.61;58.43;101354.47;4993131;28;20041;-75
2022/05/25 05:56:58;;;;;;;32.15;18.63;;;;;;;18.03;57.65;101361.59;4993625;28;20030;-74
2022/05/25 05:59:23;;;;;;;23.45;15.85;;;;;;;18.12;57.42;101361.91;4986351;28;20046;-71
2022/05/25 06:01:49;;;;;;;22.83;17.08;;;;;;;18.12;57.97;101370.09;4993608;28;20034;-75
2022/05/25 06:04:14;;;;;;;28.35;17.70;;;;;;;17.51;59.73;101363.34;4991739;28;20625;-70
2022/05/25 06:06:40;;;;;;;25.83;15.95;;;;;;;18.23;58.26;101364.44;4982756;28;20092;-71
2022/05/25 06:09:06;;;;;;;20.73;15.70;;;;;;;18.32;58.24;101357.41;4981742;28;20031;-72
2022/05/25 06:11:32;;;;;;;26.45;16.00;;;;;;;18.23;58.02;101363.63;4981168;28;20398;-71
2022/05/25 06:13:58;;;;;;;25.55;14.88;;;;;;;17.78;59.66;101364.13;4978898;28;20439;-70
2022/05/25 06:19:26;;;;;;;21.13;13.25;;;;;;;17.99;59.29;101365.91;4982430;28;20105;-72
2022/05/25 06:22:12;;;;;;;20.80;13.20;;;;;;;17.77;59.86;101364.38;4982581;28;20031;-72
2022/05/25 06:24:43;;;;;;;19.60;12.32;;;;;;;17.70;60.12;101366.50;4983302;28;20127;-70
2022/05/25 06:27:11;;;;;;;17.13;10.55;;;;;;;17.49;60.57;101365.50;4984554;28;20035;-71
2022/05/25 06:29:39;;;;;;;20.50;11.07;;;;;;;17.84;60.26;101365.81;4981364;28;20475;-73
2022/05/25 06:32:07;;;;;;;17.20;10.38;;;;;;;18.28;58.80;101372.63;4985225;28;20034;-71
2022/05/25 06:34:33;;;;;;;18.55;11.27;;;;;;;18.12;58.94;101368.16;4984790;28;20014;-70
2022/05/25 06:36:59;;;;;;;20.40;10.90;;;;;;;18.99;56.62;101376.53;4981798;28;20599;-71
2022/05/25 06:39:25;;;;;;;17.58;10.40;;;;;;;19.04;55.76;101373.84;4983112;28;20080;-71
2022/05/25 06:41:50;;;;;;;12.02;8.73;;;;;;;18.24;57.99;101376.94;4986402;28;20073;-72
2022/05/25 06:44:17;;;;;;;17.17;7.60;;;;;;;18.29;57.67;101370.72;4983611;28;20522;-72
2022/05/25 06:46:43;;;;;;;14.15;8.00;;;;;;;18.74;56.33;101364.72;4983403;28;20030;-71
2022/05/25 06:49:08;;;;;;;13.80;9.20;;;;;;;18.86;57.01;101376.22;4980111;28;20391;-73
2022/05/25 06:51:36;;;;;;;11.20;7.95;;;;;;;19.39;54.79;101386.75;4982168;28;20365;-66
2022/05/25 06:54:02;;;;;;;13.98;8.05;;;;;;;19.28;55.28;101387.78;4983042;28;20037;-66
2022/05/25 06:56:28;;;;;;;15.65;8.77;;;;;;;19.61;54.22;101389.22;4974630;28;20085;-64
2022/05/25 06:58:55;;;;;;;12.98;8.32;;;;;;;19.38;54.61;101384.28;4980033;28;20350;-64
2022/05/25 07:01:22;;;;;;;12.98;7.45;;;;;;;19.51;54.67;101394.66;4991945;28;20219;-63
2022/05/25 07:03:48;;;;;;;14.68;7.93;;;;;;;19.34;55.19;101394.91;4991278;28;20042;-65
2022/05/25 07:06:17;;;;;;;13.93;7.28;;;;;;;19.43;54.15;101397.91;4991976;28;20038;-64
2022/05/25 07:08:43;;;;;;;13.02;7.45;;;;;;;18.90;55.81;101390.94;4992251;28;20432;-67
2022/05/25 07:11:11;;;;;;;9.73;5.68;;;;;;;18.83;54.88;101393.09;4992386;28;20034;-70
2022/05/25 07:13:37;;;;;;;11.93;5.55;;;;;;;19.04;54.34;101395.63;4992681;28;20034;-72
2022/05/25 07:16:05;;;;;;;8.63;5.70;;;;;;;19.16;54.00;101407.09;4992244;28;20097;-72
2022/05/25 07:18:31;;;;;;;6.57;5.13;;;;;;;19.37;53.79;101402.56;4992207;28;20109;-72
2022/05/25 07:21:02;;;;;;;8.40;5.60;;;;;;;19.17;53.82;101406.00;4992324;28;20117;-71
2022/05/25 07:23:28;;;;;;;13.18;6.45;;;;;;;20.04;51.99;101405.88;4990854;28;20100;-69
2022/05/25 07:25:53;;;;;;;8.90;5.28;;;;;;;19.61;52.54;101397.41;4993074;28;20117;-72
2022/05/25 07:28:19;;;;;;;9.52;4.53;;;;;;;19.81;52.22;101413.78;4992329;28;20177;-69
2022/05/25 07:30:47;;;;;;;10.95;4.93;;;;;;;20.39;50.47;101410.50;4984097;28;20038;-70
2022/05/25 07:33:12;;;;;;;8.32;4.38;;;;;;;20.68;49.54;101406.03;4991881;28;20042;-72
2022/05/25 07:35:38;;;;;;;8.95;5.60;;;;;;;20.89;49.76;101402.13;4992692;28;20467;-71
2022/05/25 07:38:05;;;;;;;8.23;5.40;;;;;;;19.99;51.79;101405.03;4991257;28;20050;-70
2022/05/25 07:40:35;;;;;;;9.13;6.30;;;;;;;20.08;51.79;101414.31;4992308;28;20038;-73
2022/05/25 07:43:06;;;;;;;14.25;6.53;;;;;;;20.63;50.64;101414.25;4992267;28;20054;-70
2022/05/25 07:45:32;;;;;;;14.80;6.40;;;;;;;21.44;48.73;101409.28;4991893;28;20059;-70
2022/05/25 07:47:58;;;;;;;11.50;5.10;;;;;;;20.77;48.83;101419.94;4991564;28;20051;-71
2022/05/25 07:50:24;;;;;;;6.32;4.13;;;;;;;19.67;50.96;101412.69;4991484;28;20386;-70
2022/05/25 07:52:52;;;;;;;10.30;4.60;;;;;;;20.30;49.96;101412.16;4999546;28;20061;-70
2022/05/25 07:55:18;;;;;;;10.68;3.78;;;;;;;20.67;48.40;101415.34;4980186;28;20165;-69
2022/05/25 07:57:44;;;;;;;8.25;3.10;;;;;;;20.91;48.06;101418.25;4981813;28;20045;-70
2022/05/25 08:00:10;;;;;;;4.25;2.92;;;;;;;20.77;47.46;101425.41;4978357;28;20038;-70
2022/05/25 08:05:43;;;;;;;6.22;3.92;;;;;;;21.42;46.76;101413.38;4983506;28;20045;-71
2022/05/25 08:08:13;;;;;;;11.00;3.85;;;;;;;21.79;45.28;101411.75;4989841;28;20077;-70
2022/05/25 08:10:40;;;;;;;5.95;2.22;;;;;;;21.36;44.02;101409.03;4991759;28;20035;-69
2022/05/25 08:13:05;;;;;;;5.40;2.90;;;;;;;21.20;45.38;101416.50;4994154;28;20038;-70
2022/05/25 08:15:33;;;;;;;6.47;3.22;;;;;;;21.07;45.93;101416.31;4993803;28;20045;-69
2022/05/25 08:17:59;;;;;;;9.13;3.05;;;;;;;22.09;43.66;101407.97;4994986;28;20463;-71
2022/05/25 08:20:24;;;;;;;6.20;3.08;;;;;;;22.22;43.43;101407.28;4994896;28;20049;-73
2022/05/25 08:22:50;;;;;;;3.67;2.53;;;;;;;21.93;43.48;101401.00;4988157;28;20026;-73
2022/05/25 08:25:18;;;;;;;6.72;3.28;;;;;;;22.57;42.93;101403.38;4994317;28;20116;-74
2022/05/25 08:27:43;;;;;;;8.88;3.83;;;;;;;22.18;43.63;101397.19;4993890;28;20145;-72
2022/05/25 08:30:13;;;;;;;8.07;2.92;;;;;;;21.63;44.07;101401.19;4994686;28;20066;-73
2022/05/25 08:32:39;;;;;;;4.38;3.00;;;;;;;21.66;42.98;101411.59;4995037;28;20031;-73
2022/05/25 08:35:06;;;;;;;3.72;2.13;;;;;;;21.20;43.47;101402.00;4995006;28;20058;-73
2022/05/25 08:37:31;;;;;;;7.90;2.42;;;;;;;22.08;43.23;101413.72;4994946;28;20027;-75
2022/05/25 08:39:56;;;;;;;2.75;2.30;;;;;;;22.00;43.31;101398.72;4995132;28;20034;-73
2022/05/25 08:42:25;;;;;;;5.97;2.50;;;;;;;22.34;42.47;101401.41;4994186;28;20626;-75
2022/05/25 08:44:55;;;;;;;4.55;1.83;;;;;;;21.59;42.31;101405.59;4986487;28;20053;-74
2022/05/25 08:47:20;;;;;;;5.97;1.70;;;;;;;20.91;42.86;101402.66;4994529;28;20162;-74
2022/05/25 08:49:49;;;;;;;3.88;1.73;;;;;;;21.26;42.17;101414.56;4994401;28;20033;-73
2022/05/25 08:52:35;;;;;;;4.35;1.50;;;;;;;21.93;41.78;101402.91;4994346;28;20058;-72
2022/05/25 08:55:04;;;;;;;7.78;2.92;;;;;;;21.88;42.42;101408.44;4994581;28;20498;-74
2022/05/25 08:57:37;;;;;;;5.10;2.03;;;;;;;22.84;41.30;101400.88;4994103;28;20031;-74
2022/05/25 09:00:07;;;;;;;4.75;2.35;;;;;;;22.06;41.47;101407.72;4994625;28;20088;-74
2022/05/25 09:02:32;;;;;;;3.00;2.08;;;;;;;22.70;40.31;101411.72;4993902;28;20089;-76
2022/05/25 09:05:21;;;;;;;6.00;2.53;;;;;;;22.67;40.34;101404.09;4993622;28;20125;-74
2022/05/25 09:08:08;;;;;;;5.95;1.77;;;;;;;21.72;42.87;101416.72;4994495;28;20488;-75
2022/05/25 09:10:40;;;;;;;3.22;2.08;;;;;;;21.96;42.86;101419.56;4994150;28;20133;-74
2022/05/25 09:13:12;;;;;;;7.68;2.15;;;;;;;22.26;41.77;101407.53;4993745;28;20042;-72
2022/05/25 09:16:15;;;;;;;6.18;2.05;;;;;;;22.43;41.90;101403.22;4994285;28;20498;-73
2022/05/25 09:18:33;;;;;;;3.23;1.83;;;;;;;21.82;41.24;101413.94;4993461;28;20042;-71
2022/05/25 09:21:02;;;;;;;4.28;1.90;;;;;;;21.34;42.97;101414.78;4993991;28;20444;-72
2022/05/25 09:23:28;;;;;;;6.43;2.15;;;;;;;21.91;42.13;101422.34;4993930;28;20093;-72
2022/05/25 09:25:54;;;;;;;6.45;2.35;;;;;;;21.97;42.15;101418.47;4995635;28;20062;-73
2022/05/25 09:28:22;;;;;;;4.20;2.15;;;;;;;22.49;41.13;101413.03;4995359;28;20050;-71
2022/05/25 09:30:53;;;;;;;3.65;2.03;;;;;;;22.54;39.99;101412.97;4994479;28;20034;-72
2022/05/25 09:33:35;;;;;;;4.75;2.08;;;;;;;22.13;40.79;101417.22;4994389;28;20042;-72
2022/05/25 09:36:21;;;;;;;4.53;1.80;;;;;;;22.73;39.50;101421.28;4994580;28;20770;-74
2022/05/25 09:39:01;;;;;;;3.80;2.17;;;;;;;21.83;40.68;101436.66;4994858;28;20034;-71
2022/05/25 09:41:31;;;;;;;5.13;1.67;;;;;;;22.13;41.11;101430.91;4994724;28;20557;-73
2022/05/25 09:43:58;;;;;;;4.22;2.53;;;;;;;21.80;41.86;101446.22;4993941;28;20053;-72
2022/05/25 09:46:30;;;;;;;4.53;3.13;;;;;;;21.73;42.15;101447.63;4994743;28;20034;-73
2022/05/25 09:49:02;;;;;;;7.63;3.58;;;;;;;22.66;40.77;101442.75;4993921;28;20129;-73
2022/05/25 09:51:36;;;;;;;6.13;3.53;;;;;;;22.21;40.30;101443.19;4994277;28;20038;-75
2022/05/25 09:54:20;;;;;;;5.15;3.20;;;;;;;20.83;42.86;101457.09;4994011;28;20052;-72
2022/05/25 09:56:50;;;;;;;6.88;3.67;;;;;;;21.21;42.03;101447.41;4994467;28;20048;-74
2022/05/25 09:59:24;;;;;;;5.87;2.80;;;;;;;21.57;42.12;101446.91;4993069;28;20042;-74
2022/05/25 10:01:52;;;;;;;7.55;3.17;;;;;;;22.15;41.52;101445.13;4994693;28;20655;-74
2022/05/25 10:04:36;;;;;;;4.88;2.95;;;;;;;23.54;39.25;101429.28;4993394;28;20034;-74
2022/05/25 10:07:17;;;;;;;10.77;2.80;;;;;;;23.24;38.81;101435.16;4994026;28;20045;-73
2022/05/25 10:09:48;;;;;;;;;;;;;;;22.49;38.23;101434.94;4993976;28;20045;-75
2022/05/25 10:12:26;;;;;;;3.95;3.25;;;;;;;22.66;38.81;101434.53;4978120;28;19918;-75
2022/05/25 10:15:07;;;;;;;5.97;3.30;;;;;;;22.84;38.74;101436.50;4988201;28;20041;-73
2022/05/25 10:17:38;;;;;;;8.40;3.35;;;;;;;22.43;39.17;101438.00;4990042;28;20062;-73
2022/05/25 10:20:19;;;;;;;5.63;3.25;;;;;;;21.88;39.91;101450.28;4990493;28;20073;-73
2022/05/25 10:22:47;;;;;;;8.10;3.97;;;;;;;22.25;40.10;101436.03;4990365;28;20026;-73
2022/05/25 10:25:39;;;;;;;6.20;3.25;;;;;;;21.82;40.54;101446.75;4990788;28;20038;-72
2022/05/25 10:28:36;;;;;;;4.72;4.03;;;;;;;21.90;40.61;101449.97;4990492;28;20530;-75
2022/05/25 10:36:45;;;;;;;5.53;3.58;;;;;;;22.49;39.00;101431.38;4990609;28;20053;-76
2022/05/25 10:37:08;;;;;;;8.48;3.63;;;;;;;22.80;37.85;101440.13;4990495;28;20046;-75
2022/05/25 10:39:45;;;;;;;6.03;4.00;;;;;;;22.14;39.63;101442.69;4989785;28;20538;-75
2022/05/25 10:42:25;;;;;;;7.85;4.80;;;;;;;23.02;38.16;101426.69;4987689;28;20084;-73
2022/05/25 10:45:10;;;;;;;5.78;3.75;;;;;;;23.84;36.76;101425.28;4988804;28;20053;-73
2022/05/25 10:47:54;;;;;;;9.05;3.50;;;;;;;24.20;36.72;101418.91;4989583;28;20113;-74
2022/05/25 10:50:20;;;;;;;4.35;3.35;;;;;;;24.20;35.14;101418.06;4988242;28;20034;-74
2022/05/25 10:52:55;;;;;;;6.85;3.38;;;;;;;23.11;36.53;101413.97;4979499;28;20030;-75
2022/05/25 10:55:27;;;;;;;6.07;3.72;;;;;;;23.17;36.58;101412.78;4979866;28;20042;-76
2022/05/25 10:58:02;;;;;;;6.43;3.15;;;;;;;23.26;36.57;101417.31;4989634;28;20559;-76
2022/05/25 11:00:55;;;;;;;7.32;3.10;;;;;;;23.06;36.99;101417.59;4989858;28;20077;-77
2022/05/25 11:03:35;;;;;;;5.97;4.88;;;;;;;22.43;38.00;101413.38;4979176;28;20034;-73
2022/05/25 11:06:15;;;;;;;7.13;3.28;;;;;;;22.62;36.99;101426.06;4990299;28;20039;-74
2022/05/25 11:09:05;;;;;;;6.33;4.07;;;;;;;23.40;35.62;101412.75;4989722;28;20045;-73
2022/05/25 11:12:01;;;;;;;5.50;4.53;;;;;;;23.54;35.44;101410.91;4989569;28;20050;-74
2022/05/25 11:15:02;;;;;;;7.13;3.90;;;;;;;23.29;36.46;101429.63;4989968;28;20045;-74
2022/05/25 11:17:27;;;;;;;4.47;3.00;;;;;;;22.72;36.17;101413.38;4971093;28;20062;-72
2022/05/25 11:20:16;;;;;;;2.92;2.25;;;;;;;22.12;36.17;101429.28;4970683;28;20141;-72
2022/05/25 11:23:02;;;;;;;6.03;2.70;;;;;;;21.95;38.12;101417.94;4974027;28;20065;-72
2022/05/25 11:25:46;;;;;;;5.80;2.85;;;;;;;22.20;37.02;101414.16;4991451;28;20042;-73
2022/05/25 11:28:15;;;;;;;5.40;2.40;;;;;;;21.15;39.21;101413.00;4992346;28;20525;-73
2022/05/25 11:31:13;;;;;;;9.90;2.72;;;;;;;21.97;37.87;101418.47;4994640;28;20039;-73
2022/05/25 11:33:57;;;;;;;4.10;1.90;;;;;;;21.54;38.02;101400.97;4993669;28;20042;-73
2022/05/25 11:36:37;;;;;;;5.00;1.38;;;;;;;21.44;36.67;101420.22;4993790;28;20034;-73
2022/05/25 11:39:03;;;;;;;1.60;1.40;;;;;;;21.49;36.88;101414.69;4991030;28;20031;-73
2022/05/25 11:41:38;;;;;;;2.20;1.33;;;;;;;21.91;37.20;101421.53;4992256;28;20045;-72
2022/05/25 11:44:25;;;;;;;4.00;1.40;;;;;;;21.83;37.71;101422.97;4992712;28;20557;-72
2022/05/25 11:46:51;;;;;;;6.85;1.15;;;;;;;21.53;38.35;101423.13;4993896;28;20121;-74